LKE9976 ZBAD-ZBAA
Flight info
| Callsign | LKE9976 |
|---|---|
| Flight time | 0h 16m |
| Altitude | 6900 |
| Route | AVBOX |
| Aircraft | B738/M-SDE2E3FGHIRWXY/LB1 |
Departure
| Time | 2026-05-07 10:48 |
|---|---|
| Airport | Beijing Daxing International Airport (ZBAD) |
Arrival
| Time | 2026-05-07 11:05 |
|---|---|
| Airport | Beijing Capital International Airport (ZBAA) |
| Time | Latitude | Longitude | Altitude | Speed | Heading |
|---|---|---|---|---|---|
| 2026-05-07 10:39 | 39.52020 | 116.43257 | 90 ft | 0 kts | 12° |
| 2026-05-07 10:42 | 39.52012 | 116.43255 | 90 ft | 2 kts | 12° |
| 2026-05-07 10:42 | 39.51997 | 116.43250 | 90 ft | 2 kts | 13° |
| 2026-05-07 10:42 | 39.51982 | 116.43246 | 90 ft | 2 kts | 22° |
| 2026-05-07 10:43 | 39.51969 | 116.43237 | 90 ft | 2 kts | 33° |
| 2026-05-07 10:43 | 39.51957 | 116.43225 | 90 ft | 2 kts | 44° |
| 2026-05-07 10:43 | 39.51947 | 116.43211 | 90 ft | 2 kts | 55° |
| 2026-05-07 10:43 | 39.51940 | 116.43194 | 90 ft | 2 kts | 66° |
| 2026-05-07 10:44 | 39.51935 | 116.43175 | 90 ft | 2 kts | 77° |
| 2026-05-07 10:44 | 39.51933 | 116.43156 | 90 ft | 2 kts | 88° |
| 2026-05-07 10:44 | 39.51934 | 116.43137 | 90 ft | 2 kts | 99° |
| 2026-05-07 10:44 | 39.51936 | 116.43127 | 90 ft | 1 kts | 106° |
| 2026-05-07 10:45 | 39.51937 | 116.43123 | 90 ft | 0 kts | 106° |
| 2026-05-07 10:46 | 39.51933 | 116.43137 | 90 ft | 8 kts | 105° |
| 2026-05-07 10:46 | 39.51857 | 116.43193 | 90 ft | 17 kts | 193° |
| 2026-05-07 10:47 | 39.51779 | 116.43170 | 90 ft | 0 kts | 192° |
| 2026-05-07 10:47 | 39.51773 | 116.43169 | 90 ft | 3 kts | 192° |
| 2026-05-07 10:48 | 39.51672 | 116.43179 | 90 ft | 31 kts | 137° |
| 2026-05-07 10:48 | 39.51592 | 116.43603 | 90 ft | 85 kts | 101° |
| 2026-05-07 10:48 | 39.51384 | 116.44780 | 107 ft | 175 kts | 99° |
| 2026-05-07 10:48 | 39.51107 | 116.46378 | 1073 ft | 187 kts | 97° |
| 2026-05-07 10:49 | 39.50863 | 116.47993 | 2234 ft | 189 kts | 96° |
| 2026-05-07 10:49 | 39.50589 | 116.49724 | 2845 ft | 216 kts | 97° |
| 2026-05-07 10:49 | 39.50233 | 116.51737 | 3090 ft | 238 kts | 99° |
| 2026-05-07 10:49 | 39.49828 | 116.53861 | 3389 ft | 246 kts | 99° |
| 2026-05-07 10:50 | 39.49410 | 116.56037 | 3760 ft | 251 kts | 99° |
| 2026-05-07 10:50 | 39.48936 | 116.58215 | 4127 ft | 255 kts | 102° |
| 2026-05-07 10:50 | 39.48406 | 116.60413 | 4545 ft | 256 kts | 103° |
| 2026-05-07 10:50 | 39.47858 | 116.62643 | 4855 ft | 260 kts | 103° |
| 2026-05-07 10:51 | 39.47308 | 116.64880 | 4907 ft | 259 kts | 103° |
| 2026-05-07 10:51 | 39.46767 | 116.67083 | 4910 ft | 258 kts | 104° |
| 2026-05-07 10:51 | 39.46222 | 116.69309 | 4902 ft | 258 kts | 104° |
| 2026-05-07 10:51 | 39.45682 | 116.71518 | 4897 ft | 258 kts | 104° |
| 2026-05-07 10:52 | 39.45147 | 116.73709 | 4890 ft | 257 kts | 103° |
| 2026-05-07 10:52 | 39.44788 | 116.75971 | 4894 ft | 252 kts | 84° |
| 2026-05-07 10:52 | 39.45310 | 116.78033 | 4900 ft | 239 kts | 48° |
| 2026-05-07 10:52 | 39.46624 | 116.79208 | 4896 ft | 230 kts | 12° |
| 2026-05-07 10:53 | 39.48217 | 116.79305 | 4901 ft | 228 kts | 354° |
| 2026-05-07 10:53 | 39.49787 | 116.79086 | 4891 ft | 227 kts | 353° |
| 2026-05-07 10:53 | 39.51380 | 116.78836 | 4891 ft | 228 kts | 352° |
| 2026-05-07 10:53 | 39.52940 | 116.78593 | 4890 ft | 227 kts | 352° |
| 2026-05-07 10:54 | 39.54532 | 116.78346 | 4890 ft | 228 kts | 352° |
| 2026-05-07 10:54 | 39.56103 | 116.78104 | 4893 ft | 227 kts | 353° |
| 2026-05-07 10:54 | 39.57673 | 116.77858 | 4890 ft | 228 kts | 352° |
| 2026-05-07 10:54 | 39.59183 | 116.77238 | 4896 ft | 228 kts | 330° |
| 2026-05-07 10:55 | 39.60464 | 116.76047 | 4887 ft | 230 kts | 323° |
| 2026-05-07 10:55 | 39.61722 | 116.74725 | 4897 ft | 230 kts | 323° |
| 2026-05-07 10:55 | 39.62961 | 116.73406 | 4893 ft | 230 kts | 322° |
| 2026-05-07 10:55 | 39.64197 | 116.72089 | 4895 ft | 230 kts | 322° |
| 2026-05-07 10:56 | 39.65420 | 116.70784 | 4893 ft | 228 kts | 323° |
| 2026-05-07 10:56 | 39.66680 | 116.69473 | 4897 ft | 230 kts | 326° |
| 2026-05-07 10:56 | 39.68022 | 116.68389 | 4884 ft | 226 kts | 335° |
| 2026-05-07 10:56 | 39.69504 | 116.67680 | 4900 ft | 227 kts | 345° |
| 2026-05-07 10:57 | 39.71066 | 116.67249 | 4892 ft | 228 kts | 350° |
| 2026-05-07 10:57 | 39.72626 | 116.66956 | 4892 ft | 227 kts | 352° |
| 2026-05-07 10:57 | 39.74220 | 116.66702 | 4892 ft | 229 kts | 353° |
| 2026-05-07 10:57 | 39.75790 | 116.66460 | 4896 ft | 222 kts | 353° |
| 2026-05-07 10:58 | 39.77293 | 116.66229 | 4896 ft | 208 kts | 353° |
| 2026-05-07 10:58 | 39.78678 | 116.66014 | 4894 ft | 197 kts | 353° |
| 2026-05-07 10:58 | 39.80052 | 116.65801 | 4904 ft | 197 kts | 353° |
| 2026-05-07 10:58 | 39.81410 | 116.65589 | 4885 ft | 197 kts | 353° |
| 2026-05-07 10:59 | 39.82781 | 116.65376 | 4714 ft | 199 kts | 353° |
| 2026-05-07 10:59 | 39.84166 | 116.65160 | 4401 ft | 202 kts | 353° |
| 2026-05-07 10:59 | 39.85569 | 116.64942 | 4122 ft | 200 kts | 353° |
| 2026-05-07 10:59 | 39.86951 | 116.64726 | 3835 ft | 199 kts | 353° |
| 2026-05-07 11:00 | 39.88326 | 116.64512 | 3564 ft | 198 kts | 353° |
| 2026-05-07 11:00 | 39.89678 | 116.64301 | 3297 ft | 192 kts | 353° |
| 2026-05-07 11:00 | 39.90951 | 116.64101 | 3047 ft | 175 kts | 354° |
| 2026-05-07 11:00 | 39.92108 | 116.63921 | 2808 ft | 162 kts | 353° |
| 2026-05-07 11:01 | 39.93200 | 116.63751 | 2597 ft | 151 kts | 354° |
| 2026-05-07 11:01 | 39.94183 | 116.63596 | 2460 ft | 131 kts | 354° |
| 2026-05-07 11:01 | 39.95068 | 116.63459 | 2206 ft | 125 kts | 354° |
| 2026-05-07 11:01 | 39.95896 | 116.63329 | 2046 ft | 118 kts | 354° |
| 2026-05-07 11:02 | 39.96729 | 116.63197 | 1915 ft | 120 kts | 354° |
| 2026-05-07 11:02 | 39.97559 | 116.63068 | 1748 ft | 119 kts | 354° |
| 2026-05-07 11:02 | 39.98374 | 116.62941 | 1584 ft | 119 kts | 354° |
| 2026-05-07 11:02 | 39.99206 | 116.62811 | 1428 ft | 119 kts | 354° |
| 2026-05-07 11:03 | 40.00029 | 116.62683 | 1269 ft | 119 kts | 353° |
| 2026-05-07 11:03 | 40.00862 | 116.62550 | 1108 ft | 120 kts | 353° |
| 2026-05-07 11:03 | 40.01683 | 116.62422 | 958 ft | 120 kts | 353° |
| 2026-05-07 11:03 | 40.02523 | 116.62295 | 800 ft | 120 kts | 353° |
| 2026-05-07 11:04 | 40.03364 | 116.62172 | 642 ft | 121 kts | 352° |
| 2026-05-07 11:04 | 40.04204 | 116.62050 | 492 ft | 121 kts | 353° |
| 2026-05-07 11:04 | 40.05040 | 116.61912 | 333 ft | 122 kts | 352° |
| 2026-05-07 11:04 | 40.05897 | 116.61773 | 166 ft | 124 kts | 351° |
| 2026-05-07 11:05 | 40.06692 | 116.61641 | 120 ft | 89 kts | 353° |
| 2026-05-07 11:05 | 40.07147 | 116.61566 | 120 ft | 51 kts | 356° |
| 2026-05-07 11:05 | 40.07435 | 116.61419 | 120 ft | 31 kts | 321° |
| 2026-05-07 11:05 | 40.07567 | 116.61259 | 120 ft | 17 kts | 282° |
| 2026-05-07 11:06 | 40.07545 | 116.61149 | 120 ft | 19 kts | 262° |
| 2026-05-07 11:06 | 40.07516 | 116.60925 | 120 ft | 12 kts | 234° |
| 2026-05-07 11:06 | 40.07465 | 116.60871 | 120 ft | 9 kts | 244° |
| 2026-05-07 11:06 | 40.07455 | 116.60798 | 120 ft | 4 kts | 264° |
| 2026-05-07 11:07 | 40.07452 | 116.60764 | 120 ft | 3 kts | 263° |